createdAt,value
2018-06-21T00:02:04.200Z,59.01
2018-06-21T00:04:32.605Z,58.73
2018-06-21T00:07:01.062Z,58.96
2018-06-21T00:09:29.547Z,59.00
2018-06-21T00:11:57.955Z,59.09
2018-06-21T00:14:26.410Z,59.13
2018-06-21T00:16:54.925Z,59.75
2018-06-21T00:19:23.373Z,59.80
2018-06-21T00:21:51.880Z,60.12
2018-06-21T00:24:20.676Z,60.52
2018-06-21T00:26:49.168Z,60.69
2018-06-21T00:29:17.942Z,60.30
2018-06-21T00:31:46.318Z,60.11
2018-06-21T00:34:14.969Z,60.10
2018-06-21T00:36:43.418Z,60.35
2018-06-21T00:39:12.561Z,60.15
2018-06-21T00:41:41.133Z,60.82
2018-06-21T00:44:09.657Z,60.23
2018-06-21T00:46:38.029Z,60.56
2018-06-21T00:49:06.990Z,60.55
2018-06-21T00:51:35.489Z,60.53
2018-06-21T00:54:03.971Z,61.08
2018-06-21T00:56:32.600Z,61.06
2018-06-21T00:59:01.086Z,61.29
2018-06-21T01:01:30.223Z,61.34
2018-06-21T01:03:59.184Z,61.21
2018-06-21T01:06:27.709Z,60.96
2018-06-21T01:08:56.266Z,61.12
2018-06-21T01:11:24.788Z,61.37
2018-06-21T01:13:53.465Z,61.65
2018-06-21T01:16:22.646Z,60.99
2018-06-21T01:18:51.655Z,61.67
2018-06-21T01:21:20.125Z,61.98
2018-06-21T01:23:48.750Z,61.72
2018-06-21T01:26:17.412Z,62.07
2018-06-21T01:28:45.888Z,61.70
2018-06-21T01:31:14.363Z,62.04
2018-06-21T01:33:42.832Z,61.30
2018-06-21T01:36:11.361Z,61.32
2018-06-21T01:38:39.899Z,61.70
2018-06-21T01:41:08.332Z,61.63
2018-06-21T01:43:36.764Z,61.71
2018-06-21T01:46:05.604Z,62.16
2018-06-21T01:48:34.015Z,62.13
2018-06-21T01:51:02.707Z,62.38
2018-06-21T01:53:31.095Z,62.22
2018-06-21T01:55:59.497Z,62.46
2018-06-21T01:58:27.957Z,62.36
2018-06-21T02:00:56.794Z,61.52
2018-06-21T02:03:25.183Z,61.95
2018-06-21T02:05:53.673Z,62.43
2018-06-21T02:08:22.861Z,62.64
2018-06-21T02:10:51.359Z,63.09
2018-06-21T02:13:20.033Z,62.65
2018-06-21T02:15:48.523Z,62.79
2018-06-21T02:18:17.090Z,63.16
2018-06-21T02:20:45.700Z,63.17
2018-06-21T02:23:14.125Z,62.81
2018-06-21T02:25:42.570Z,62.47
2018-06-21T02:28:11.034Z,62.76
2018-06-21T02:30:39.790Z,63.36
2018-06-21T02:33:08.420Z,63.47
2018-06-21T02:35:36.916Z,64.07
2018-06-21T02:38:05.402Z,63.34
2018-06-21T02:40:34.267Z,63.71
2018-06-21T02:43:02.657Z,63.53
2018-06-21T02:45:31.166Z,63.40
2018-06-21T02:47:59.589Z,63.24
2018-06-21T02:50:28.161Z,63.19
2018-06-21T02:52:56.958Z,63.66
2018-06-21T02:55:25.455Z,63.71
2018-06-21T02:57:54.518Z,63.62
2018-06-21T03:00:23.239Z,63.24
2018-06-21T03:02:51.754Z,63.05
2018-06-21T03:05:20.281Z,62.92
2018-06-21T03:07:48.748Z,63.68
2018-06-21T03:10:17.474Z,63.71
2018-06-21T03:12:45.948Z,64.06
2018-06-21T03:15:14.509Z,64.10
2018-06-21T03:17:42.952Z,63.79
2018-06-21T03:20:11.429Z,64.50
2018-06-21T03:22:39.967Z,64.93
2018-06-21T03:25:08.738Z,64.21
2018-06-21T03:27:37.148Z,64.66
2018-06-21T03:30:05.678Z,64.31
2018-06-21T03:32:34.406Z,63.81
2018-06-21T03:35:02.924Z,64.49
2018-06-21T03:37:31.325Z,64.97
2018-06-21T03:39:59.955Z,64.67
2018-06-21T03:42:28.459Z,65.28
2018-06-21T03:44:56.882Z,64.73
2018-06-21T03:47:25.342Z,65.11
2018-06-21T03:49:53.812Z,65.48
2018-06-21T03:52:22.370Z,64.91
2018-06-21T03:54:50.730Z,64.69
2018-06-21T03:57:19.392Z,64.68
2018-06-21T03:59:47.941Z,64.36
2018-06-21T04:02:16.550Z,64.15
2018-06-21T04:04:45.383Z,64.28
2018-06-21T04:07:13.976Z,64.29
2018-06-21T04:09:42.466Z,63.98
2018-06-21T04:12:10.963Z,65.19
2018-06-21T04:14:39.469Z,65.47
2018-06-21T04:17:07.943Z,65.02
2018-06-21T04:19:36.500Z,65.51
2018-06-21T04:22:04.994Z,65.42
2018-06-21T04:24:34.095Z,65.13
2018-06-21T04:27:02.865Z,64.88
2018-06-21T04:29:31.476Z,64.54
2018-06-21T04:32:00.141Z,64.36
2018-06-21T04:34:28.839Z,64.35
2018-06-21T04:36:58.209Z,64.23
2018-06-21T04:39:26.903Z,64.02
2018-06-21T04:43:55.124Z,64.59
2018-06-21T04:46:23.677Z,64.92
2018-06-21T04:48:52.125Z,64.77
2018-06-21T04:51:20.691Z,64.98
2018-06-21T04:53:49.090Z,65.07
2018-06-21T04:56:17.551Z,64.76
2018-06-21T04:58:45.969Z,63.53
2018-06-21T05:01:14.534Z,63.49
2018-06-21T05:03:42.922Z,63.25
2018-06-21T05:06:11.913Z,63.17
2018-06-21T05:08:41.083Z,63.14
2018-06-21T05:11:10.286Z,63.10
2018-06-21T05:13:38.799Z,63.03
2018-06-21T05:16:07.833Z,63.41
2018-06-21T05:18:36.347Z,63.57
2018-06-21T05:21:04.773Z,63.42
2018-06-21T05:23:33.192Z,63.40
2018-06-21T05:26:02.390Z,62.21
2018-06-21T05:28:31.160Z,62.23
2018-06-21T05:30:59.653Z,62.02
2018-06-21T05:33:28.205Z,61.58
2018-06-21T05:35:56.672Z,61.99
2018-06-21T05:38:25.173Z,62.00
2018-06-21T05:40:53.573Z,61.93
2018-06-21T05:43:22.215Z,61.43
2018-06-21T05:45:50.694Z,61.55
2018-06-21T05:48:19.285Z,62.12
2018-06-21T05:50:47.783Z,61.63
2018-06-21T05:53:16.265Z,61.09
2018-06-21T05:55:44.926Z,60.42
2018-06-21T05:58:13.451Z,59.93
2018-06-21T06:00:41.997Z,60.05
2018-06-21T06:03:10.649Z,60.29
2018-06-21T06:05:39.180Z,60.16
2018-06-21T06:08:07.697Z,59.86
2018-06-21T06:10:36.106Z,60.36
2018-06-21T06:13:04.584Z,60.39
2018-06-21T06:15:33.197Z,60.15
2018-06-21T06:18:01.622Z,60.09
2018-06-21T06:20:30.047Z,59.73
2018-06-21T06:22:59.328Z,60.25
2018-06-21T06:25:27.695Z,59.20
2018-06-21T06:27:56.131Z,58.61
2018-06-21T06:30:24.712Z,58.87
2018-06-21T06:32:53.166Z,58.73
2018-06-21T06:35:21.772Z,58.34
2018-06-21T06:37:50.253Z,58.55
2018-06-21T06:40:18.794Z,58.81
2018-06-21T06:42:47.384Z,58.80
2018-06-21T06:45:15.857Z,58.62
2018-06-21T06:47:44.587Z,58.98
2018-06-21T06:50:13.007Z,59.27
2018-06-21T06:52:41.449Z,58.82
2018-06-21T06:55:09.927Z,58.38
2018-06-21T06:57:38.372Z,57.92
2018-06-21T07:00:07.302Z,56.76
2018-06-21T07:02:35.749Z,55.61
2018-06-21T07:05:04.299Z,54.88
2018-06-21T07:07:33.054Z,53.46
2018-06-21T07:10:01.639Z,53.76
2018-06-21T07:12:30.159Z,53.16
2018-06-21T07:14:58.613Z,52.90
2018-06-21T07:17:27.109Z,52.95
2018-06-21T07:19:55.540Z,53.28
2018-06-21T07:22:24.158Z,52.70
2018-06-21T07:24:53.625Z,52.47
2018-06-21T07:27:22.623Z,52.55
2018-06-21T07:29:51.145Z,52.26
2018-06-21T07:32:19.598Z,53.50
2018-06-21T07:34:48.026Z,53.03
2018-06-21T07:37:16.427Z,52.59
2018-06-21T07:39:44.946Z,52.47
2018-06-21T07:42:13.502Z,51.25
2018-06-21T07:44:41.940Z,49.61
2018-06-21T07:47:10.449Z,49.24
2018-06-21T07:49:39.704Z,49.95
2018-06-21T07:52:08.212Z,48.40
2018-06-21T07:54:37.417Z,47.43
2018-06-21T07:57:06.181Z,47.76
2018-06-21T07:59:34.607Z,47.80
2018-06-21T08:02:03.089Z,47.50
2018-06-21T08:04:31.518Z,47.35
2018-06-21T08:06:59.936Z,47.73
2018-06-21T08:09:28.417Z,46.88
2018-06-21T08:11:57.077Z,46.51
2018-06-21T08:14:26.160Z,46.66
2018-06-21T08:16:55.783Z,45.07
2018-06-21T08:19:24.219Z,45.25
2018-06-21T08:21:53.780Z,44.14
2018-06-21T08:24:22.429Z,45.50
2018-06-21T08:26:50.956Z,44.85
2018-06-21T08:29:19.580Z,44.54
2018-06-21T08:31:48.069Z,45.72
2018-06-21T08:34:16.692Z,44.61
2018-06-21T08:36:45.220Z,43.48
2018-06-21T08:39:13.722Z,43.29
2018-06-21T08:41:42.206Z,42.72
2018-06-21T08:44:10.653Z,42.78
2018-06-21T08:46:39.232Z,43.39
2018-06-21T08:49:07.675Z,42.54
2018-06-21T08:51:36.230Z,42.51
2018-06-21T08:54:05.405Z,40.69
2018-06-21T08:56:33.911Z,40.59
2018-06-21T08:59:02.445Z,40.16
2018-06-21T09:01:30.865Z,39.52
2018-06-21T09:04:00.563Z,40.15
2018-06-21T09:06:28.983Z,39.23
2018-06-21T09:08:57.545Z,40.15
2018-06-21T09:11:27.142Z,39.64
2018-06-21T09:13:55.580Z,40.93
2018-06-21T09:16:24.226Z,39.88
2018-06-21T09:18:53.376Z,39.66
2018-06-21T09:21:21.772Z,38.75
2018-06-21T09:23:50.249Z,39.01
2018-06-21T09:26:19.582Z,40.42
2018-06-21T09:28:48.059Z,39.41
2018-06-21T09:31:16.516Z,38.52
2018-06-21T09:33:45.088Z,38.38
2018-06-21T09:36:13.664Z,38.04
2018-06-21T09:38:47.378Z,38.81
2018-06-21T09:41:21.583Z,37.59
2018-06-21T09:44:03.820Z,36.47
2018-06-21T09:46:33.870Z,36.36
2018-06-21T09:48:57.870Z,37.21
2018-06-21T09:51:26.361Z,36.21
2018-06-21T09:53:54.861Z,36.02
2018-06-21T09:56:24.098Z,36.39
2018-06-21T09:58:52.527Z,36.57
2018-06-21T10:01:21.048Z,36.36
2018-06-21T10:03:49.541Z,36.42
2018-06-21T10:06:18.139Z,36.94
2018-06-21T10:08:46.692Z,36.62
2018-06-21T10:11:15.426Z,36.71
2018-06-21T10:13:43.838Z,37.39
2018-06-21T10:16:12.669Z,36.62
2018-06-21T10:18:41.850Z,36.48
2018-06-21T10:21:10.488Z,35.16
2018-06-21T10:23:39.055Z,36.81
2018-06-21T10:26:07.567Z,35.54
2018-06-21T10:28:36.095Z,36.25
2018-06-21T10:31:05.167Z,36.10
2018-06-21T10:33:33.588Z,35.20
2018-06-21T10:36:02.155Z,34.58
2018-06-21T10:38:30.612Z,35.21
2018-06-21T10:40:59.094Z,35.54
2018-06-21T10:43:27.640Z,34.20
2018-06-21T10:45:56.140Z,33.22
2018-06-21T10:48:24.597Z,31.83
2018-06-21T10:50:53.135Z,32.51
2018-06-21T10:53:21.698Z,32.34
2018-06-21T10:55:50.279Z,32.11
2018-06-21T10:58:18.786Z,32.20
2018-06-21T11:00:47.421Z,32.04
2018-06-21T11:03:15.952Z,31.03
2018-06-21T11:05:44.535Z,30.81
2018-06-21T11:08:13.117Z,30.66
2018-06-21T11:10:41.632Z,31.00
2018-06-21T11:13:10.445Z,31.47
2018-06-21T11:15:38.938Z,30.39
2018-06-21T11:18:09.165Z,29.12
2018-06-21T11:20:37.870Z,29.22
2018-06-21T11:23:06.394Z,29.59
2018-06-21T11:25:34.916Z,29.41
2018-06-21T11:28:03.475Z,28.91
2018-06-21T11:30:32.127Z,29.63
2018-06-21T11:33:00.656Z,29.70
2018-06-21T11:35:29.129Z,30.39
2018-06-21T11:37:57.779Z,30.20
2018-06-21T11:40:26.335Z,30.02
2018-06-21T11:42:54.826Z,31.03
2018-06-21T11:45:23.546Z,30.96
2018-06-21T11:47:52.032Z,29.89
2018-06-21T11:50:20.595Z,29.82
2018-06-21T11:52:49.159Z,30.09
2018-06-21T11:55:18.329Z,29.45
2018-06-21T11:57:46.914Z,30.50
2018-06-21T12:00:15.992Z,31.32
2018-06-21T12:02:44.463Z,30.30
2018-06-21T12:05:14.154Z,30.50
2018-06-21T12:07:42.614Z,30.47
2018-06-21T12:10:11.098Z,30.75
2018-06-21T12:12:39.670Z,31.54
2018-06-21T12:15:08.175Z,31.55
2018-06-21T12:17:36.940Z,31.77
2018-06-21T12:20:05.370Z,33.21
2018-06-21T12:22:33.844Z,32.55
2018-06-21T12:25:02.455Z,32.03
2018-06-21T12:27:30.971Z,32.19
2018-06-21T12:29:59.475Z,31.98
2018-06-21T12:32:27.928Z,32.80
2018-06-21T12:34:56.390Z,31.44
2018-06-21T12:37:24.795Z,32.11
2018-06-21T12:39:53.297Z,31.56
2018-06-21T12:42:21.735Z,31.45
2018-06-21T12:44:50.293Z,31.57
2018-06-21T12:47:18.798Z,30.26
2018-06-21T12:49:47.217Z,29.51
2018-06-21T12:52:15.793Z,29.32
2018-06-21T12:54:44.224Z,29.89
2018-06-21T12:57:12.738Z,30.08
2018-06-21T12:59:41.947Z,27.96
2018-06-21T13:02:10.432Z,27.84
2018-06-21T13:04:38.920Z,27.94
2018-06-21T13:07:07.386Z,26.13
2018-06-21T13:09:47.176Z,25.63
2018-06-21T13:12:30.990Z,26.21
2018-06-21T13:14:59.523Z,26.75
2018-06-21T13:17:29.383Z,27.55
2018-06-21T13:19:58.638Z,28.69
2018-06-21T13:22:27.676Z,29.69
2018-06-21T13:24:56.115Z,30.81
2018-06-21T13:27:24.571Z,30.99
2018-06-21T13:29:53.075Z,30.90
2018-06-21T13:32:21.591Z,30.12
2018-06-21T13:34:50.419Z,29.71
2018-06-21T13:37:18.967Z,29.12
2018-06-21T13:39:47.456Z,29.59
2018-06-21T13:42:16.081Z,27.85
2018-06-21T13:44:44.704Z,27.82
2018-06-21T13:47:13.524Z,27.44
2018-06-21T13:49:42.021Z,27.83
2018-06-21T13:52:10.471Z,27.13
2018-06-21T13:54:39.002Z,28.86
2018-06-21T13:57:07.462Z,29.11
2018-06-21T13:59:35.965Z,29.22
2018-06-21T14:02:04.751Z,30.56
2018-06-21T14:04:33.206Z,30.57
2018-06-21T14:07:02.292Z,29.58
2018-06-21T14:09:30.711Z,30.53
2018-06-21T14:11:59.436Z,29.84
2018-06-21T14:14:27.872Z,30.49
2018-06-21T14:16:56.406Z,29.68
2018-06-21T14:19:24.885Z,29.80
2018-06-21T14:21:53.473Z,30.70
2018-06-21T14:24:22.061Z,30.65
2018-06-21T14:26:50.542Z,30.79
2018-06-21T14:29:19.018Z,31.91
2018-06-21T14:31:48.211Z,32.60
2018-06-21T14:34:16.686Z,31.85
2018-06-21T14:36:45.897Z,31.42
2018-06-21T14:39:14.560Z,32.77
2018-06-21T14:41:43.104Z,32.02
2018-06-21T14:44:11.751Z,33.83
2018-06-21T14:46:46.187Z,34.77
2018-06-21T14:49:14.678Z,35.03
2018-06-21T14:51:43.182Z,34.99
2018-06-21T14:54:12.256Z,35.57
2018-06-21T14:56:40.854Z,35.90
2018-06-21T14:59:09.290Z,36.64
2018-06-21T15:01:37.992Z,37.11
2018-06-21T15:04:06.463Z,37.32
2018-06-21T15:06:34.936Z,37.30
2018-06-21T15:09:08.197Z,37.12
2018-06-21T15:11:38.148Z,40.37
2018-06-21T15:14:08.451Z,39.99
2018-06-21T15:16:38.341Z,39.78
2018-06-21T15:19:08.312Z,39.73
2018-06-21T15:21:38.171Z,39.81
2018-06-21T15:24:08.427Z,40.86
2018-06-21T15:26:38.533Z,40.34
2018-06-21T15:29:08.496Z,41.09
2018-06-21T15:31:38.276Z,42.07
2018-06-21T15:34:08.707Z,42.43
2018-06-21T15:36:39.184Z,41.95
2018-06-21T15:39:24.770Z,41.83
2018-06-21T15:41:54.520Z,42.11
2018-06-21T15:44:24.517Z,42.21
2018-06-21T15:46:54.805Z,41.86
2018-06-21T15:49:24.733Z,41.94
2018-06-21T15:51:54.597Z,43.11
2018-06-21T15:54:24.392Z,43.10
2018-06-21T15:56:53.483Z,43.43
2018-06-21T15:59:22.092Z,42.39
2018-06-21T16:01:50.561Z,42.28
2018-06-21T16:04:19.211Z,43.26
2018-06-21T16:06:48.893Z,43.62
2018-06-21T16:09:18.161Z,43.50
2018-06-21T16:11:46.723Z,43.19
2018-06-21T16:14:16.437Z,43.15
2018-06-21T16:16:48.967Z,42.54
2018-06-21T16:19:17.531Z,42.46
2018-06-21T16:21:45.992Z,42.42
2018-06-21T16:24:14.477Z,42.55
2018-06-21T16:26:42.993Z,42.78
2018-06-21T16:29:11.494Z,43.66
2018-06-21T16:31:40.142Z,43.42
2018-06-21T16:34:13.305Z,42.79
2018-06-21T16:36:44.377Z,43.33
2018-06-21T16:39:16.170Z,43.69
2018-06-21T16:41:45.442Z,43.78
2018-06-21T16:44:14.718Z,44.34
2018-06-21T16:46:43.295Z,44.95
2018-06-21T16:49:11.794Z,45.00
2018-06-21T16:51:40.269Z,44.32
2018-06-21T16:54:08.857Z,45.40
2018-06-21T16:56:37.410Z,45.11
2018-06-21T16:59:06.031Z,45.12
2018-06-21T17:01:34.492Z,44.98
2018-06-21T17:04:03.020Z,44.41
2018-06-21T17:06:31.567Z,44.71
2018-06-21T17:09:00.038Z,44.68
2018-06-21T17:11:28.759Z,44.94
2018-06-21T17:13:57.274Z,45.69
2018-06-21T17:16:25.806Z,44.79
2018-06-21T17:18:54.312Z,44.35
2018-06-21T17:21:22.950Z,44.32
2018-06-21T17:23:51.456Z,44.58
2018-06-21T17:26:19.987Z,44.40
2018-06-21T17:28:48.624Z,43.71
2018-06-21T17:31:17.133Z,42.99
2018-06-21T17:33:45.667Z,42.59
2018-06-21T17:36:14.296Z,44.10
2018-06-21T17:38:43.308Z,43.19
2018-06-21T17:41:12.037Z,42.73
2018-06-21T17:43:40.619Z,42.67
2018-06-21T17:46:10.051Z,41.71
2018-06-21T17:48:38.532Z,40.44
2018-06-21T17:51:07.018Z,39.44
2018-06-21T17:53:35.548Z,38.76
2018-06-21T17:56:04.112Z,37.81
2018-06-21T17:58:32.653Z,37.39
2018-06-21T18:01:01.380Z,37.40
2018-06-21T18:03:29.883Z,37.53
2018-06-21T18:05:58.989Z,37.48
2018-06-21T18:08:28.151Z,37.99
2018-06-21T18:10:56.674Z,38.21
2018-06-21T18:13:25.186Z,37.23
2018-06-21T18:15:53.785Z,36.68
2018-06-21T18:18:23.077Z,36.79
2018-06-21T18:20:52.621Z,36.62
2018-06-21T18:23:22.285Z,36.16
2018-06-21T18:25:53.730Z,36.47
2018-06-21T18:28:24.271Z,36.58
2018-06-21T18:30:53.275Z,36.07
2018-06-21T18:33:21.933Z,35.40
2018-06-21T18:35:50.695Z,35.54
2018-06-21T18:38:19.343Z,34.53
2018-06-21T18:40:47.888Z,33.65
2018-06-21T18:43:17.405Z,33.98
2018-06-21T18:45:47.765Z,33.91
2018-06-21T18:48:17.618Z,34.03
2018-06-21T18:50:47.492Z,33.51
2018-06-21T18:53:17.596Z,32.37
2018-06-21T18:55:47.441Z,32.68
2018-06-21T18:58:17.090Z,32.45
2018-06-21T19:00:46.550Z,32.28
2018-06-21T19:03:15.233Z,33.21
2018-06-21T19:05:43.679Z,33.00
2018-06-21T19:08:18.105Z,32.48
2018-06-21T19:10:52.741Z,32.29
2018-06-21T19:13:21.625Z,31.73
2018-06-21T19:15:50.952Z,31.84
2018-06-21T19:18:20.370Z,31.80
2018-06-21T19:20:50.571Z,31.34
2018-06-21T19:23:19.610Z,31.42
2018-06-21T19:25:49.051Z,31.13
2018-06-21T19:28:18.380Z,30.84
2018-06-21T19:30:47.822Z,31.11
2018-06-21T19:33:16.305Z,31.49
2018-06-21T19:35:45.789Z,31.96
2018-06-21T19:38:14.786Z,32.22
2018-06-21T19:40:44.334Z,31.53
2018-06-21T19:43:14.607Z,31.09
2018-06-21T19:45:43.756Z,31.94
2018-06-21T19:48:13.593Z,32.54
2018-06-21T19:50:42.980Z,32.01
2018-06-21T19:53:13.395Z,32.45
2018-06-21T19:55:44.212Z,32.93
2018-06-21T19:58:14.381Z,32.12
2018-06-21T20:00:43.417Z,32.51
2018-06-21T20:03:12.651Z,32.33
2018-06-21T20:05:41.933Z,32.83
2018-06-21T20:08:11.546Z,32.51
2018-06-21T20:10:40.925Z,33.54
2018-06-21T20:13:10.284Z,33.00
2018-06-21T20:15:55.841Z,33.62
2018-06-21T20:18:24.722Z,33.46
2018-06-21T20:20:54.063Z,32.90
2018-06-21T20:23:22.607Z,33.04
2018-06-21T20:25:53.877Z,33.59
2018-06-21T20:28:22.502Z,34.22
2018-06-21T20:30:51.472Z,33.58
2018-06-21T20:33:19.921Z,33.67
2018-06-21T20:35:48.415Z,34.31
2018-06-21T20:38:16.987Z,34.01
2018-06-21T20:40:45.402Z,34.13
2018-06-21T20:43:13.919Z,34.39
2018-06-21T20:45:42.504Z,34.31
2018-06-21T20:48:10.993Z,34.83
2018-06-21T20:50:39.446Z,34.95
2018-06-21T20:53:07.990Z,35.13
2018-06-21T20:55:36.641Z,34.81
2018-06-21T20:58:05.392Z,35.27
2018-06-21T21:00:33.990Z,34.79
2018-06-21T21:03:02.437Z,33.97
2018-06-21T21:05:30.889Z,35.22
2018-06-21T21:08:00.324Z,34.54
2018-06-21T21:10:28.785Z,34.60
2018-06-21T21:12:57.326Z,34.76
2018-06-21T21:15:26.020Z,35.07
2018-06-21T21:17:54.561Z,35.92
2018-06-21T21:20:23.114Z,35.82
2018-06-21T21:22:51.572Z,36.37
2018-06-21T21:25:20.253Z,36.14
2018-06-21T21:27:48.720Z,36.26
2018-06-21T21:30:17.188Z,36.42
2018-06-21T21:32:45.921Z,35.92
2018-06-21T21:35:14.377Z,35.84
2018-06-21T21:37:43.603Z,36.28
2018-06-21T21:40:12.104Z,37.93
2018-06-21T21:42:40.638Z,37.39
2018-06-21T21:45:09.194Z,37.40
2018-06-21T21:47:37.812Z,37.43
2018-06-21T21:50:06.405Z,37.12
2018-06-21T21:52:35.011Z,37.81
2018-06-21T21:55:03.524Z,37.47
2018-06-21T21:57:31.965Z,37.29
2018-06-21T22:00:00.950Z,37.68
2018-06-21T22:02:29.437Z,37.23
2018-06-21T22:04:58.014Z,37.59
2018-06-21T22:07:26.449Z,37.21
2018-06-21T22:09:54.904Z,38.20
2018-06-21T22:12:23.621Z,37.49
2018-06-21T22:14:52.062Z,37.62
2018-06-21T22:17:20.515Z,37.65
2018-06-21T22:19:48.956Z,37.95
2018-06-21T22:22:17.472Z,38.25
2018-06-21T22:24:45.937Z,38.41
2018-06-21T22:27:14.381Z,38.99
2018-06-21T22:29:42.826Z,39.27
2018-06-21T22:32:11.283Z,38.24
2018-06-21T22:34:39.675Z,38.05
2018-06-21T22:37:08.178Z,37.71
2018-06-21T22:39:36.615Z,38.20
2018-06-21T22:42:05.070Z,38.39
2018-06-21T22:44:33.530Z,38.94
2018-06-21T22:47:02.063Z,39.11
2018-06-21T22:49:31.193Z,40.01
2018-06-21T22:51:59.663Z,38.99
2018-06-21T22:54:28.128Z,39.06
2018-06-21T22:56:56.653Z,38.78
2018-06-21T22:59:25.290Z,39.09
2018-06-21T23:01:53.775Z,39.13
2018-06-21T23:04:22.472Z,39.15
2018-06-21T23:06:50.985Z,38.72
2018-06-21T23:09:19.510Z,38.55
2018-06-21T23:11:48.128Z,39.72
2018-06-21T23:14:17.281Z,39.36
2018-06-21T23:16:45.745Z,39.75
2018-06-21T23:19:25.556Z,40.35
2018-06-21T23:21:54.241Z,39.49
2018-06-21T23:24:23.327Z,39.72
2018-06-21T23:26:52.284Z,39.43
2018-06-21T23:29:20.806Z,40.58
2018-06-21T23:31:49.605Z,41.84
2018-06-21T23:34:18.608Z,41.31
2018-06-21T23:36:47.114Z,41.98
2018-06-21T23:39:15.549Z,41.60
2018-06-21T23:41:44.368Z,42.09
2018-06-21T23:44:13.975Z,42.49
2018-06-21T23:46:43.247Z,42.36
2018-06-21T23:49:12.135Z,42.09
2018-06-21T23:51:40.783Z,42.04
2018-06-21T23:54:11.175Z,42.27
2018-06-21T23:56:39.900Z,42.85
2018-06-21T23:59:08.436Z,41.92
